Logo

Informe meteorológico de la semana en curso

  • Compartir en Google Plus
  • Compartir en Twitter
  • Compartir en Facebook
Nº de accesos al conjunto de datos: 253

Previsualización

API de datos Código HTML

_id codest paraje municipio periodo NDias tmin tmax tmed hrmin hrmax hrmed prec radmax radmed vvmed vvmax eto_pm_fao
1 AL31 Lebor Totana 20/09/2021 - 26/09/2021 2 16.5 27.8 21.1 47.6 98.6 75.4 6.2 975 191.2 1.6 6.1 6.6
2 AL41 La Calavera Alhama 20/09/2021 - 26/09/2021 2 16.2 29.2 21.2 40.2 88.8 71.2 25.7 972 225.3 2.2 9.9 8.2
3 AL52 Los Palomos Librilla 20/09/2021 - 26/09/2021 2 16.8 28.8 21.0 46.8 95.9 78.2 18.2 1021 165.4 1.1 8.1 5.8
4 AL91 Leiva Mazarrón 20/09/2021 - 26/09/2021 2 18.4 28.7 23.5 48.1 95.0 73.0 12.9 1001 219.0 1.3 6.1 7.3
5 CA12 La Palma Cartagena 20/09/2021 - 26/09/2021 2 18.0 27.6 22.9 47.9 82.7 67.7 9.2 992 230.5 1.8 11.7 7.9
6 CA21 Corvera Murcia 20/09/2021 - 26/09/2021 2 17.0 27.8 21.8 48.1 87.8 70.1 6.9 1145 190.4 1.9 6.2 7.3
7 CA42 Balsapintada Fuente Alamo 20/09/2021 - 26/09/2021 2 16.8 28.3 21.9 50.2 99.9 79.4 57.7 1114 199.3 1.0 5.4 6.4
8 CA52 La Aljorra Cartagena 20/09/2021 - 26/09/2021 2 16.6 30.2 22.3 47.1 94.3 74.9 37.5 1025 202.0 2.3 11.0 7.7
9 CA73 Los Belones Cartagena 20/09/2021 - 26/09/2021 2 19.0 26.6 22.9 61.2 85.3 73.7 1.1 1090 200.8 2.7 10.0 7.3
10 CA91 Campillo Abajo Fuente Alamo 20/09/2021 - 26/09/2021 2 16.8 28.2 21.4 46.3 89.0 72.0 5.1 1127 210.0 0.7 5.0 6.4
11 CI32 Estación Ulea Ulea 20/09/2021 - 26/09/2021 2 15.9 28.3 20.7 43.7 99.3 73.3 18.9 1117 183.4 1.3 5.6 6.5
12 CI42 La Carrichosa Cieza 20/09/2021 - 26/09/2021 2 14.5 29.6 20.3 42.5 93.7 72.2 2.6 1268 201.2 1.0 6.8 6.4
13 CI52 Rotas Calasparra 20/09/2021 - 26/09/2021 2 16.2 29.1 20.3 36.9 87.5 70.0 2.5 1180 185.7 0.9 7.7 6.1
14 CI71 Llano de las olivericas Calasparra 20/09/2021 - 26/09/2021 2 15.6 28.8 20.2 44.5 94.4 72.5 5.9 1099 163.9 1.0 6.0 5.5
15 CR12 Barranda Caravaca 20/09/2021 - 26/09/2021 2 11.5 24.0 15.6 42.9 93.5 80.1 9.2 1103 152.3 1.2 7.1 4.8
16 CR32 El Chaparral Cehegin 20/09/2021 - 26/09/2021 2 13.7 26.9 18.2 45.0 92.2 78.3 9.6 1125 144.4 0.7 7.2 4.7
17 CR42 Venta Ulea Moratalla 20/09/2021 - 26/09/2021 2 15.3 27.9 19.2 44.9 94.6 77.0 5.1 1208 151.3 1.4 7.4 5.6
18 CR52 La Torrecica Cehegin 20/09/2021 - 26/09/2021 2 15.0 27.5 18.4 41.3 92.7 77.8 9.4 1119 147.0 0.5 4.7 4.6
19 JU12 Cañada del Judio Jumilla 20/09/2021 - 26/09/2021 1 14.5 28.0 20.6 34.7 78.4 63.4 0.0 857 216.6 1.5 9.8 4.0
20 JU42 Las Moratillas Yecla 20/09/2021 - 26/09/2021 2 11.3 27.0 16.5 30.8 96.8 80.3 11.4 1071 181.6 1.2 6.2 5.4
21 JU52 Pinillos Yecla 20/09/2021 - 26/09/2021 1 11.0 28.0 18.8 32.6 89.0 67.5 0.0 971 202.6 0.8 7.0 3.2
22 JU62 Miraflores Jumilla 20/09/2021 - 26/09/2021 2 12.6 28.0 17.9 34.2 90.7 73.2 2.7 1140 164.0 2.1 8.5 6.1
23 JU71 Las Encebras Jumilla 20/09/2021 - 26/09/2021 2 14.6 27.3 19.2 37.0 83.0 65.7 1.8 1178 211.6 3.1 10.1 8.0
24 JU81 Roman Jumilla 20/09/2021 - 26/09/2021 1 14.3 28.4 20.9 31.1 78.5 60.6 0.0 918 240.8 0.9 6.6 3.7
25 LO11 Purias Lorca 20/09/2021 - 26/09/2021 2 16.8 27.4 21.2 48.8 93.2 73.0 1.6 1002 181.8 2.1 7.0 6.9
26 LO21 Pozohiguera Lorca 20/09/2021 - 26/09/2021 2 16.7 25.5 21.1 46.7 93.0 73.9 0.0 1115 191.3 2.7 8.9 7.3
27 LO31 La Pilica Aguilas 20/09/2021 - 26/09/2021 2 20.3 26.8 23.6 48.1 87.3 68.7 9.7 1003 212.5 2.3 8.6 7.9
28 LO41 La Paca Lorca 20/09/2021 - 26/09/2021 2 13.4 26.3 18.2 46.0 95.2 79.7 15.6 1174 157.1 1.6 7.0 5.5
29 LO51 Tebar Aguilas 20/09/2021 - 26/09/2021 2 18.8 26.3 21.7 46.9 86.6 71.1 0.0 1072 223.3 2.7 12.5 8.2
30 LO61 El Esparragal Puerto Lumbreras 20/09/2021 - 26/09/2021 2 16.0 27.7 21.2 40.5 87.5 66.1 1.2 1084 208.7 2.2 7.4 7.9
31 ML12 Yechar Mula 20/09/2021 - 26/09/2021 1 15.1 29.8 21.2 38.7 91.3 76.9 4.5 None None 0.4 3.0 2.7
32 ML21 Mula Mula 20/09/2021 - 26/09/2021 2 15.5 28.8 19.6 40.0 90.4 74.9 25.3 999 161.2 0.8 5.0 5.4
33 MO12 Pilica Torres de Cotillas 20/09/2021 - 26/09/2021 2 16.6 28.6 21.2 49.8 99.7 80.6 10.8 976 180.2 1.1 6.7 6.0
34 MO22 Campotejar Molina Segura 20/09/2021 - 26/09/2021 1 16.8 28.9 22.4 37.1 78.5 60.9 0.3 982 174.1 1.3 5.9 3.6
35 MO31 El Llano Molina Segura 20/09/2021 - 26/09/2021 2 17.0 29.7 21.9 39.8 99.9 74.3 10.6 955 181.8 0.7 8.0 5.8
36 MO41 La Jaira Abanilla 20/09/2021 - 26/09/2021 1 18.3 28.8 22.4 39.1 78.7 61.3 0.0 935 177.1 1.0 6.8 3.3
37 MO51 Charco Taray Fortuna 20/09/2021 - 26/09/2021 2 15.4 29.3 21.2 42.8 98.2 73.4 14.3 980 159.8 0.9 4.9 5.6
38 MO62 Loma del Aire Ojós 20/09/2021 - 26/09/2021 2 16.9 29.7 21.6 44.9 98.3 73.6 0.7 1086 191.4 0.8 5.8 6.1
39 MU21 Los Alamos Beniel 20/09/2021 - 26/09/2021 2 16.2 29.3 22.0 45.9 95.2 72.6 14.3 987 190.3 1.2 6.8 6.5
40 MU31 La Vereda Murcia 20/09/2021 - 26/09/2021 2 17.7 29.2 21.5 46.8 95.0 76.3 12.4 961 164.5 1.1 7.2 5.9
41 MU52 Cabezo Plata Murcia 20/09/2021 - 26/09/2021 2 16.3 27.8 21.8 48.3 88.7 71.1 11.4 1030 191.4 1.8 11.5 7.0
42 MU62 La Alberca Murcia 20/09/2021 - 26/09/2021 2 17.0 28.7 22.5 38.4 86.0 63.4 23.3 961 185.7 1.0 8.6 6.5
43 TP22 Santiago de la Ribera San Javier 20/09/2021 - 26/09/2021 2 17.8 27.7 23.1 48.8 84.2 63.9 16.0 937 221.5 2.3 10.0 8.1
44 TP42 Torre Blanca Torre Pacheco 20/09/2021 - 26/09/2021 2 18.0 27.8 23.1 54.7 92.7 71.6 19.6 1014 220.3 3.1 13.3 8.0
45 TP52 El Mirador San Javier 20/09/2021 - 26/09/2021 2 16.8 27.1 22.2 45.4 86.7 65.7 8.4 875 194.3 2.1 9.2 7.5
46 TP73 Los Infiernos Torre Pacheco 20/09/2021 - 26/09/2021 1 20.4 27.2 23.4 47.2 84.3 63.3 0.7 1027 215.4 2.4 7.9 4.3
47 TP91 Torre Pacheco Torre Pacheco 20/09/2021 - 26/09/2021 1 19.5 28.0 23.6 53.3 88.6 71.3 3.6 913 211.0 0.8 5.8 3.3

Propiedades del conjunto de datos

Título
Informe meteorológico de la semana en curso
Descripción

Información sobre los datos meteorológicos medios de la semana en curso. Se incluye la información por cada una de las estaciones meteorológicas de la red SIAM gestionada por el Instituto Murciano de Investigación y Desarrollo Agrario y Alimentario (IMIDA). Los datos recogidos por las estaciones son validados al día siguiente de la toma de datos.

Categoría
Palabra clave / etiqueta
Publicador
Cobertura geográfica
Región de Murcia
Idioma
Español
Fecha de primera publicación
15/05/2018
Fecha de última modificación
22/09/2021
Licencia
Frecuencia de actualización
Diaria (cada día)
Diccionario de datos
La información se estructura en las siguientes columnas: Código de estación meteorológica, Nombre del paraje donde está ubicada la estación, Municipio donde está ubicada la estación, Fechas de toma de datos, número de días del ejercicio, Temperatura mínima (ºC), Temperatura máxima (ºC), Temperatura media (ºC), Humedad Relativa mínima (%), Humedad Relativa máxima (%),Humedad Relativa media (%),Precipitación (mm), radiación máxima (w/m2), radiación media (w/m2), Velocidad del Viento media (m/seg), Velocidad del Viento máxima (m/seg), Evapotranspiración máxima de un día (mm).
comments powered by Disqus